createdAt,value
2016-03-22T00:00:16.845Z,8.48
2016-03-22T00:01:16.864Z,8.36
2016-03-22T00:02:16.850Z,8.42
2016-03-22T00:03:16.870Z,8.34
2016-03-22T00:04:16.903Z,8.37
2016-03-22T00:05:16.889Z,8.51
2016-03-22T00:06:16.925Z,8.48
2016-03-22T00:07:16.927Z,8.48
2016-03-22T00:08:16.944Z,8.36
2016-03-22T00:09:16.947Z,8.45
2016-03-22T00:10:16.997Z,8.41
2016-03-22T00:11:16.984Z,8.41
2016-03-22T00:12:16.987Z,8.41
2016-03-22T00:13:17.021Z,8.31
2016-03-22T00:14:17.054Z,8.33
2016-03-22T00:15:17.042Z,8.3
2016-03-22T00:16:17.029Z,8.34
2016-03-22T00:17:16.906Z,8.37
2016-03-22T00:18:17.066Z,8.33
2016-03-22T00:19:17.068Z,8.33
2016-03-22T00:20:17.102Z,8.34
2016-03-22T00:21:17.121Z,8.41
2016-03-22T00:22:17.138Z,8.34
2016-03-22T00:23:17.126Z,8.36
2016-03-22T00:24:17.051Z,8.38
2016-03-22T00:25:17.162Z,8.33
2016-03-22T00:26:17.165Z,8.37
2016-03-22T00:27:17.215Z,8.27
2016-03-22T00:28:17.201Z,8.3
2016-03-22T00:29:17.204Z,8.33
2016-03-22T00:30:17.222Z,8.28
2016-03-22T00:31:17.225Z,8.28
2016-03-22T00:32:17.461Z,8.3
2016-03-22T00:33:17.261Z,8.26
2016-03-22T00:34:17.280Z,8.18
2016-03-22T00:35:17.313Z,8.15
2016-03-22T00:36:17.316Z,8.18
2016-03-22T00:37:17.302Z,8.12
2016-03-22T00:38:17.306Z,8.08
2016-03-22T00:39:17.371Z,8.13
2016-03-22T00:40:17.358Z,8.08
2016-03-22T00:41:17.360Z,8.03
2016-03-22T00:42:17.379Z,8.06
2016-03-22T00:43:17.398Z,8.03
2016-03-22T00:44:17.400Z,7.98
2016-03-22T00:45:17.418Z,8.08
2016-03-22T00:46:17.421Z,8.13
2016-03-22T00:47:17.440Z,8.03
2016-03-22T00:48:17.442Z,8.13
2016-03-22T00:49:17.460Z,8.05
2016-03-22T00:50:17.479Z,8.01
2016-03-22T00:51:17.481Z,8.1
2016-03-22T00:52:17.500Z,8.06
2016-03-22T00:53:17.502Z,8.05
2016-03-22T00:54:17.443Z,8.1
2016-03-22T00:55:17.539Z,8.03
2016-03-22T00:56:17.542Z,8.01
2016-03-22T00:57:17.560Z,8.12
2016-03-22T00:58:17.578Z,8.13
2016-03-22T00:59:17.580Z,7.98
2016-03-22T01:00:17.600Z,8.12
2016-03-22T01:01:17.617Z,8.13
2016-03-22T01:02:17.619Z,8.08
2016-03-22T01:03:17.639Z,8.01
2016-03-22T01:04:17.672Z,8.12
2016-03-22T01:05:17.660Z,8.03
2016-03-22T01:06:17.663Z,8.1
2016-03-22T01:07:17.696Z,8.08
2016-03-22T01:08:17.699Z,8.08
2016-03-22T01:09:17.780Z,8.15
2016-03-22T01:10:17.720Z,8.12
2016-03-22T01:11:17.738Z,8.12
2016-03-22T01:12:17.741Z,8.03
2016-03-22T01:13:17.759Z,8.03
2016-03-22T01:14:17.778Z,8.12
2016-03-22T01:15:17.796Z,8.12
2016-03-22T01:16:17.799Z,8.12
2016-03-22T01:17:17.801Z,8.06
2016-03-22T01:18:17.820Z,8
2016-03-22T01:19:17.884Z,8.08
2016-03-22T01:20:17.840Z,8.08
2016-03-22T01:21:17.859Z,8.01
2016-03-22T01:22:17.877Z,8
2016-03-22T01:23:17.881Z,8.03
2016-03-22T01:24:17.914Z,7.88
2016-03-22T01:25:17.916Z,7.91
2016-03-22T01:26:17.951Z,7.91
2016-03-22T01:27:17.937Z,7.95
2016-03-22T01:28:17.956Z,7.93
2016-03-22T01:29:17.974Z,7.98
2016-03-22T01:30:17.977Z,7.93
2016-03-22T01:31:17.995Z,7.93
2016-03-22T01:32:18.014Z,7.88
2016-03-22T01:33:18.032Z,7.95
2016-03-22T01:34:18.019Z,7.91
2016-03-22T01:35:18.038Z,7.82
2016-03-22T01:36:18.055Z,7.9
2016-03-22T01:37:18.058Z,7.93
2016-03-22T01:38:18.076Z,7.9
2016-03-22T01:39:18.189Z,7.83
2016-03-22T01:40:18.129Z,7.85
2016-03-22T01:41:18.100Z,7.83
2016-03-22T01:42:18.118Z,7.83
2016-03-22T01:43:18.152Z,7.79
2016-03-22T01:44:18.140Z,7.77
2016-03-22T01:45:18.173Z,7.67
2016-03-22T01:46:18.176Z,7.61
2016-03-22T01:47:18.225Z,7.66
2016-03-22T01:48:18.213Z,7.7
2016-03-22T01:49:18.200Z,7.67
2016-03-22T01:50:18.234Z,7.7
2016-03-22T01:51:18.237Z,7.75
2016-03-22T01:52:18.239Z,7.63
2016-03-22T01:53:18.273Z,7.67
2016-03-22T01:54:18.292Z,7.66
2016-03-22T01:55:18.294Z,7.67
2016-03-22T01:56:18.297Z,7.69
2016-03-22T01:57:18.311Z,7.5
2016-03-22T01:58:18.285Z,7.61
2016-03-22T01:59:18.322Z,7.57
2016-03-22T02:00:18.311Z,7.48
2016-03-22T02:01:18.315Z,7.56
2016-03-22T02:02:18.307Z,7.56
2016-03-22T02:03:18.304Z,7.51
2016-03-22T02:04:18.318Z,7.47
2016-03-22T02:05:18.316Z,7.45
2016-03-22T02:06:18.344Z,7.54
2016-03-22T02:07:18.343Z,7.6
2016-03-22T02:08:18.361Z,7.58
2016-03-22T02:09:18.236Z,7.56
2016-03-22T02:10:18.377Z,7.51
2016-03-22T02:11:18.379Z,7.48
2016-03-22T02:12:18.396Z,7.54
2016-03-22T02:13:18.413Z,7.54
2016-03-22T02:14:18.399Z,7.54
2016-03-22T02:15:18.418Z,7.56
2016-03-22T02:16:18.450Z,7.48
2016-03-22T02:17:18.468Z,7.48
2016-03-22T02:18:18.471Z,7.42
2016-03-22T02:19:18.473Z,7.47
2016-03-22T02:20:18.492Z,7.47
2016-03-22T02:21:18.495Z,7.4
2016-03-22T02:22:18.544Z,7.42
2016-03-22T02:23:18.531Z,7.4
2016-03-22T02:24:18.566Z,7.38
2016-03-22T02:25:18.552Z,7.45
2016-03-22T02:26:18.555Z,7.42
2016-03-22T02:27:18.558Z,7.51
2016-03-22T02:28:18.591Z,7.45
2016-03-22T02:29:18.594Z,7.45
2016-03-22T02:30:18.602Z,7.5
2016-03-22T02:31:18.620Z,7.48
2016-03-22T02:32:18.623Z,7.54
2016-03-22T02:33:18.641Z,7.53
2016-03-22T02:34:18.659Z,7.43
2016-03-22T02:35:18.679Z,7.39
2016-03-22T02:36:18.681Z,7.47
2016-03-22T02:37:18.714Z,7.43
2016-03-22T02:38:18.701Z,7.54
2016-03-22T02:39:18.782Z,7.47
2016-03-22T02:40:18.737Z,7.51
2016-03-22T02:41:18.741Z,7.54
2016-03-22T02:42:18.743Z,7.56
2016-03-22T02:43:18.761Z,7.53
2016-03-22T02:44:18.874Z,7.51
2016-03-22T02:45:18.798Z,7.57
2016-03-22T02:46:18.800Z,7.51
2016-03-22T02:47:18.803Z,7.56
2016-03-22T02:48:18.822Z,7.6
2016-03-22T02:49:18.841Z,7.47
2016-03-22T02:50:18.859Z,7.43
2016-03-22T02:51:18.877Z,7.39
2016-03-22T02:52:18.880Z,7.47
2016-03-22T02:53:18.945Z,7.47
2016-03-22T02:54:18.744Z,7.42
2016-03-22T02:55:18.919Z,7.42
2016-03-22T02:56:18.906Z,7.39
2016-03-22T02:57:18.925Z,7.42
2016-03-22T02:58:18.943Z,7.5
2016-03-22T02:59:18.961Z,7.39
2016-03-22T03:00:18.963Z,7.39
2016-03-22T03:01:18.982Z,7.4
2016-03-22T03:02:19.016Z,7.48
2016-03-22T03:03:19.018Z,7.4
2016-03-22T03:04:19.115Z,7.42
2016-03-22T03:05:19.040Z,7.43
2016-03-22T03:06:19.058Z,7.45
2016-03-22T03:07:19.060Z,7.39
2016-03-22T03:08:19.095Z,7.4
2016-03-22T03:09:19.066Z,7.25
2016-03-22T03:10:19.100Z,7.33
2016-03-22T03:11:19.103Z,7.35
2016-03-22T03:12:19.121Z,7.28
2016-03-22T03:13:19.139Z,7.38
2016-03-22T03:14:19.142Z,7.31
2016-03-22T03:15:19.161Z,7.32
2016-03-22T03:16:19.163Z,7.31
2016-03-22T03:17:19.167Z,7.25
2016-03-22T03:18:19.184Z,7.36
2016-03-22T03:19:19.202Z,7.23
2016-03-22T03:20:19.221Z,7.33
2016-03-22T03:21:19.223Z,7.32
2016-03-22T03:22:19.225Z,7.29
2016-03-22T03:23:19.244Z,7.33
2016-03-22T03:24:19.263Z,7.31
2016-03-22T03:25:19.265Z,7.36
2016-03-22T03:26:19.284Z,7.28
2016-03-22T03:27:19.302Z,7.36
2016-03-22T03:28:19.320Z,7.39
2016-03-22T03:29:19.324Z,7.29
2016-03-22T03:30:19.341Z,7.32
2016-03-22T03:31:19.344Z,7.31
2016-03-22T03:32:19.377Z,7.21
2016-03-22T03:33:19.365Z,7.24
2016-03-22T03:34:19.415Z,7.25
2016-03-22T03:35:19.418Z,7.21
2016-03-22T03:36:19.388Z,7.33
2016-03-22T03:37:19.438Z,7.31
2016-03-22T03:38:19.457Z,7.25
2016-03-22T03:39:19.444Z,7.35
2016-03-22T03:40:19.462Z,7.29
2016-03-22T03:41:19.495Z,7.31
2016-03-22T03:42:19.499Z,7.29
2016-03-22T03:43:19.486Z,7.28
2016-03-22T03:44:19.520Z,7.25
2016-03-22T03:45:19.522Z,7.36
2016-03-22T03:46:19.525Z,7.29
2016-03-22T03:47:19.528Z,7.35
2016-03-22T03:48:19.562Z,7.29
2016-03-22T03:49:19.548Z,7.32
2016-03-22T03:50:19.566Z,7.31
2016-03-22T03:51:19.601Z,7.28
2016-03-22T03:52:19.603Z,7.29
2016-03-22T03:53:19.622Z,7.28
2016-03-22T03:54:19.609Z,7.23
2016-03-22T03:55:19.643Z,7.25
2016-03-22T03:56:19.646Z,7.23
2016-03-22T03:57:19.664Z,7.13
2016-03-22T03:58:19.666Z,7.21
2016-03-22T03:59:19.669Z,7.2
2016-03-22T04:00:19.703Z,7.17
2016-03-22T04:01:19.705Z,7.11
2016-03-22T04:02:19.708Z,7.07
2016-03-22T04:03:19.758Z,7.11
2016-03-22T04:04:19.745Z,7.14
2016-03-22T04:05:19.763Z,7.06
2016-03-22T04:06:19.766Z,7.1
2016-03-22T04:07:19.785Z,7.1
2016-03-22T04:08:19.787Z,7.2
2016-03-22T04:09:19.821Z,7.14
2016-03-22T04:10:19.823Z,7.11
2016-03-22T04:11:19.826Z,7.17
2016-03-22T04:12:19.845Z,7.29
2016-03-22T04:13:19.863Z,7.24
2016-03-22T04:14:19.865Z,7.13
2016-03-22T04:15:19.884Z,7.23
2016-03-22T04:16:19.918Z,7.17
2016-03-22T04:17:19.920Z,7.15
2016-03-22T04:18:19.908Z,7.17
2016-03-22T04:19:19.911Z,7.14
2016-03-22T04:20:19.944Z,7.06
2016-03-22T04:21:19.964Z,7.11
2016-03-22T04:22:19.950Z,7.1
2016-03-22T04:23:19.983Z,7.07
2016-03-22T04:24:19.987Z,6.92
2016-03-22T04:25:19.989Z,6.87
2016-03-22T04:26:20.023Z,6.85
2016-03-22T04:27:20.025Z,6.78
2016-03-22T04:28:20.028Z,6.78
2016-03-22T04:29:20.031Z,6.78
2016-03-22T04:30:20.050Z,6.77
2016-03-22T04:31:20.099Z,6.75
2016-03-22T04:32:20.070Z,6.84
2016-03-22T04:33:20.074Z,6.7
2016-03-22T04:34:20.123Z,6.7
2016-03-22T04:35:20.110Z,6.75
2016-03-22T04:36:20.112Z,6.87
2016-03-22T04:37:20.146Z,6.78
2016-03-22T04:38:20.149Z,6.7
2016-03-22T04:39:20.168Z,6.77
2016-03-22T04:40:20.186Z,6.74
2016-03-22T04:41:20.188Z,6.88
2016-03-22T04:42:20.190Z,6.93
2016-03-22T04:43:20.210Z,6.81
2016-03-22T04:44:20.212Z,6.89
2016-03-22T04:45:20.245Z,6.87
2016-03-22T04:46:20.249Z,6.87
2016-03-22T04:47:20.251Z,6.93
2016-03-22T04:48:20.254Z,6.96
2016-03-22T04:49:20.273Z,7.03
2016-03-22T04:50:20.291Z,6.88
2016-03-22T04:51:20.294Z,6.95
2016-03-22T04:52:20.312Z,6.96
2016-03-22T04:53:20.314Z,7.05
2016-03-22T04:54:20.317Z,7.06
2016-03-22T04:55:20.350Z,7.05
2016-03-22T04:56:20.354Z,7.06
2016-03-22T04:57:20.372Z,6.95
2016-03-22T04:58:20.391Z,6.99
2016-03-22T04:59:20.393Z,7.06
2016-03-22T05:00:20.396Z,6.97
2016-03-22T05:01:20.414Z,6.96
2016-03-22T05:02:20.416Z,6.96
2016-03-22T05:03:20.466Z,7.05
2016-03-22T05:04:20.453Z,7.07
2016-03-22T05:05:20.457Z,7
2016-03-22T05:06:20.474Z,7.06
2016-03-22T05:07:20.524Z,7
2016-03-22T05:08:20.496Z,7.06
2016-03-22T05:09:20.498Z,7.1
2016-03-22T05:10:20.532Z,7.07
2016-03-22T05:11:20.535Z,7.13
2016-03-22T05:12:20.553Z,7.11
2016-03-22T05:13:20.556Z,7.1
2016-03-22T05:14:20.590Z,7.14
2016-03-22T05:15:20.576Z,7.17
2016-03-22T05:16:20.580Z,7.14
2016-03-22T05:17:20.598Z,7.1
2016-03-22T05:18:20.601Z,7.14
2016-03-22T05:19:20.634Z,7.14
2016-03-22T05:20:20.637Z,7.15
2016-03-22T05:21:20.656Z,7.11
2016-03-22T05:22:20.517Z,7.11
2016-03-22T05:23:20.661Z,7.14
2016-03-22T05:24:20.678Z,7.15
2016-03-22T05:25:20.713Z,7.15
2016-03-22T05:26:20.716Z,7.11
2016-03-22T05:27:20.719Z,7.13
2016-03-22T05:28:20.737Z,7.32
2016-03-22T05:29:20.739Z,7.18
2016-03-22T05:30:20.758Z,7.23
2016-03-22T05:31:20.760Z,7.21
2016-03-22T05:32:20.779Z,7.35
2016-03-22T05:33:20.782Z,7.25
2016-03-22T05:34:20.815Z,7.36
2016-03-22T05:35:20.866Z,7.25
2016-03-22T05:36:20.821Z,7.36
2016-03-22T05:37:22.244Z,7.23
2016-03-22T05:38:20.696Z,7.35
2016-03-22T05:39:20.899Z,7.21
2016-03-22T05:40:25.241Z,7.25
2016-03-22T05:41:20.869Z,7.31
2016-03-22T05:42:20.903Z,7.32
2016-03-22T05:43:20.891Z,7.25
2016-03-22T05:44:20.893Z,7.29
2016-03-22T05:45:20.911Z,7.36
2016-03-22T05:46:20.930Z,7.28
2016-03-22T05:47:20.932Z,7.29
2016-03-22T05:48:20.950Z,7.28
2016-03-22T05:49:20.969Z,7.25
2016-03-22T05:50:20.971Z,7.29
2016-03-22T05:51:20.975Z,7.23
2016-03-22T05:52:21.008Z,7.18
2016-03-22T05:53:21.011Z,7.29
2016-03-22T05:54:21.013Z,7.32
2016-03-22T05:55:21.032Z,7.29
2016-03-22T05:56:21.051Z,7.38
2016-03-22T05:57:21.053Z,7.38
2016-03-22T05:58:21.057Z,7.39
2016-03-22T05:59:21.074Z,7.4
2016-03-22T06:00:21.093Z,7.39
2016-03-22T06:01:21.110Z,7.39
2016-03-22T06:02:21.129Z,7.43
2016-03-22T06:03:21.132Z,7.48
2016-03-22T06:04:21.150Z,7.4
2016-03-22T06:05:21.153Z,7.47
2016-03-22T06:06:21.156Z,7.43
2016-03-22T06:07:21.173Z,7.5
2016-03-22T06:08:21.192Z,7.5
2016-03-22T06:09:21.195Z,7.53
2016-03-22T06:10:21.260Z,7.45
2016-03-22T06:11:21.262Z,7.56
2016-03-22T06:12:21.218Z,7.56
2016-03-22T06:13:21.237Z,7.54
2016-03-22T06:14:21.255Z,7.53
2016-03-22T06:15:21.273Z,7.53
2016-03-22T06:16:21.275Z,7.54
2016-03-22T06:17:21.294Z,7.66
2016-03-22T06:18:21.312Z,7.61
2016-03-22T06:19:21.315Z,7.72
2016-03-22T06:20:21.334Z,7.67
2016-03-22T06:21:21.336Z,7.63
2016-03-22T06:22:21.339Z,7.73
2016-03-22T06:23:21.388Z,7.82
2016-03-22T06:24:21.376Z,7.72
2016-03-22T06:25:21.457Z,7.75
2016-03-22T06:26:21.412Z,7.83
2016-03-22T06:27:21.399Z,7.83
2016-03-22T06:28:21.432Z,7.88
2016-03-22T06:29:21.452Z,7.9
2016-03-22T06:30:21.454Z,7.85
2016-03-22T06:31:21.457Z,7.9
2016-03-22T06:32:21.476Z,7.83
2016-03-22T06:33:21.493Z,7.83
2016-03-22T06:34:21.496Z,7.93
2016-03-22T06:35:21.514Z,7.87
2016-03-22T06:36:21.518Z,7.91
2016-03-22T06:37:21.536Z,7.95
2016-03-22T06:38:21.554Z,7.9
2016-03-22T06:39:21.572Z,7.97
2016-03-22T06:40:21.637Z,8.03
2016-03-22T06:41:21.609Z,8
2016-03-22T06:42:21.595Z,8.06
2016-03-22T06:43:21.599Z,8.08
2016-03-22T06:44:21.633Z,8.08
2016-03-22T06:45:21.636Z,8.16
2016-03-22T06:46:21.653Z,8.15
2016-03-22T06:47:21.672Z,8.15
2016-03-22T06:48:21.674Z,8.16
2016-03-22T06:49:21.708Z,8.19
2016-03-22T06:50:21.695Z,8.24
2016-03-22T06:51:21.713Z,8.31
2016-03-22T06:52:21.732Z,8.31
2016-03-22T06:53:21.735Z,8.37
2016-03-22T06:54:21.847Z,8.38
2016-03-22T06:55:21.818Z,8.46
2016-03-22T06:56:21.774Z,8.38
2016-03-22T06:57:21.776Z,8.45
2016-03-22T06:58:21.796Z,8.51
2016-03-22T06:59:21.813Z,8.45
2016-03-22T07:00:21.832Z,8.51
2016-03-22T07:01:21.865Z,8.49
2016-03-22T07:02:21.853Z,8.55
2016-03-22T07:03:21.918Z,8.53
2016-03-22T07:04:21.873Z,8.58
2016-03-22T07:05:21.893Z,8.6
2016-03-22T07:06:21.895Z,8.63
2016-03-22T07:07:21.913Z,8.66
2016-03-22T07:08:21.936Z,8.73
2016-03-22T07:09:21.955Z,8.74
2016-03-22T07:10:21.989Z,8.71
2016-03-22T07:11:21.991Z,8.74
2016-03-22T07:12:21.979Z,8.76
2016-03-22T07:13:22.012Z,8.81
2016-03-22T07:14:22.000Z,8.84
2016-03-22T07:15:22.080Z,8.84
2016-03-22T07:16:22.036Z,8.94
2016-03-22T07:17:22.039Z,9.03
2016-03-22T07:18:22.057Z,9.02
2016-03-22T07:19:21.950Z,9.08
2016-03-22T07:20:22.062Z,9.08
2016-03-22T07:21:22.112Z,9.16
2016-03-22T07:22:22.115Z,9.23
2016-03-22T07:23:22.132Z,9.25
2016-03-22T07:24:22.151Z,9.37
2016-03-22T07:25:22.201Z,9.4
2016-03-22T07:26:22.171Z,9.5
2016-03-22T07:27:22.190Z,9.48
2016-03-22T07:28:22.209Z,9.58
2016-03-22T07:29:22.212Z,9.68
2016-03-22T07:30:22.229Z,9.76
2016-03-22T07:31:22.232Z,9.83
2016-03-22T07:32:22.235Z,9.84
2016-03-22T07:33:22.253Z,9.87
2016-03-22T07:34:22.272Z,9.89
2016-03-22T07:35:22.306Z,10.01
2016-03-22T07:36:22.309Z,10.01
2016-03-22T07:37:22.358Z,10.01
2016-03-22T07:38:22.329Z,10.23
2016-03-22T07:39:22.348Z,10.25
2016-03-22T07:40:22.381Z,10.22
2016-03-22T07:41:22.384Z,10.31
2016-03-22T07:42:22.402Z,10.4
2016-03-22T07:43:22.422Z,10.35
2016-03-22T07:44:22.408Z,10.49
2016-03-22T07:45:22.442Z,10.41
2016-03-22T07:46:22.445Z,10.49
2016-03-22T07:47:22.447Z,10.59
2016-03-22T07:48:22.466Z,10.75
2016-03-22T07:49:22.483Z,10.79
2016-03-22T07:50:22.503Z,10.79
2016-03-22T07:51:22.521Z,10.81
2016-03-22T07:52:22.570Z,10.97
2016-03-22T07:53:22.557Z,10.94
2016-03-22T07:54:22.560Z,11.04
2016-03-22T07:55:22.374Z,11.12
2016-03-22T07:56:22.612Z,11.37
2016-03-22T07:57:22.599Z,11.37
2016-03-22T07:58:22.633Z,11.47
2016-03-22T07:59:22.651Z,11.63
2016-03-22T08:00:22.654Z,11.86
2016-03-22T08:01:22.673Z,11.87
2016-03-22T08:02:22.690Z,11.91
2016-03-22T08:03:22.693Z,12.12
2016-03-22T08:04:22.728Z,12.15
2016-03-22T08:05:22.745Z,12.09
2016-03-22T08:06:22.609Z,12.12
2016-03-22T08:07:22.767Z,12.31
2016-03-22T08:08:22.785Z,12.31
2016-03-22T08:09:22.803Z,12.47
2016-03-22T08:10:22.853Z,12.58
2016-03-22T08:11:22.840Z,12.61
2016-03-22T08:12:22.858Z,12.6
2016-03-22T08:13:22.877Z,12.78
2016-03-22T08:14:22.895Z,12.9
2016-03-22T08:15:22.913Z,13.13
2016-03-22T08:16:22.916Z,13.33
2016-03-22T08:17:22.934Z,13.3
2016-03-22T08:18:22.953Z,13.52
2016-03-22T08:19:22.955Z,13.6
2016-03-22T08:20:22.989Z,13.77
2016-03-22T08:21:23.007Z,13.77
2016-03-22T08:22:23.011Z,13.79
2016-03-22T08:23:23.044Z,13.81
2016-03-22T08:24:23.063Z,13.87
2016-03-22T08:25:23.080Z,14.05
2016-03-22T08:26:23.099Z,13.96
2016-03-22T08:27:23.118Z,14.05
2016-03-22T08:28:23.121Z,14.36
2016-03-22T08:29:23.155Z,14.77
2016-03-22T08:30:23.157Z,15.24
2016-03-22T08:31:23.175Z,15.58
2016-03-22T08:32:23.209Z,15.92
2016-03-22T08:33:23.212Z,16.04
2016-03-22T08:34:23.229Z,16.1
2016-03-22T08:35:23.264Z,16.31
2016-03-22T08:36:23.281Z,16.39
2016-03-22T08:37:23.285Z,16.54
2016-03-22T08:38:23.334Z,16.75
2016-03-22T08:39:23.337Z,16.72
2016-03-22T08:40:23.575Z,16.89
2016-03-22T08:41:23.389Z,16.75
2016-03-22T08:42:23.408Z,16.78
2016-03-22T08:43:23.426Z,16.76
2016-03-22T08:44:23.445Z,16.87
2016-03-22T08:45:23.478Z,16.84
2016-03-22T08:46:23.480Z,16.91
2016-03-22T08:47:23.500Z,16.91
2016-03-22T08:48:23.517Z,16.87
2016-03-22T08:49:23.552Z,17.01
2016-03-22T08:50:23.570Z,17.19
2016-03-22T08:51:23.619Z,17.27
2016-03-22T08:52:23.607Z,17.39
2016-03-22T08:53:23.624Z,17.51
2016-03-22T08:54:23.644Z,17.45
2016-03-22T08:55:23.677Z,17.76
2016-03-22T08:56:23.695Z,18.01
2016-03-22T08:57:23.714Z,18.28
2016-03-22T08:58:23.763Z,18.45
2016-03-22T08:59:23.782Z,18.5
2016-03-22T09:00:23.832Z,18.56
2016-03-22T09:01:23.819Z,18.78
2016-03-22T09:02:23.821Z,18.65
2016-03-22T09:03:23.839Z,18.45
2016-03-22T09:04:23.873Z,18.43
2016-03-22T09:05:23.892Z,18.38
2016-03-22T09:06:23.910Z,18.08
2016-03-22T09:07:23.941Z,18.19
2016-03-22T09:08:23.959Z,18.19
2016-03-22T09:09:23.978Z,18.37
2016-03-22T09:10:24.027Z,18.37
2016-03-22T09:11:24.030Z,18.49
2016-03-22T09:12:24.064Z,18.65
2016-03-22T09:13:24.098Z,18.84
2016-03-22T09:14:24.116Z,18.92
2016-03-22T09:15:24.119Z,19
2016-03-22T09:16:24.168Z,19.19
2016-03-22T09:17:24.171Z,19.47
2016-03-22T09:18:24.188Z,19.56
2016-03-22T09:19:24.224Z,19.74
2016-03-22T09:20:24.257Z,19.76
2016-03-22T09:21:24.274Z,19.66
2016-03-22T09:22:24.293Z,19.55
2016-03-22T09:23:24.312Z,19.67
2016-03-22T09:24:24.346Z,19.85
2016-03-22T09:25:24.379Z,20.02
2016-03-22T09:26:24.399Z,20.41
2016-03-22T09:27:24.416Z,20.25
2016-03-22T09:28:24.434Z,20.09
2016-03-22T09:29:24.500Z,19.91
2016-03-22T09:30:24.487Z,19.76
2016-03-22T09:31:24.521Z,19.59
2016-03-22T09:32:24.539Z,19.18
2016-03-22T09:33:24.557Z,19.11
2016-03-22T09:34:24.576Z,18.93
2016-03-22T09:35:24.609Z,18.84
2016-03-22T09:36:24.645Z,18.58
2016-03-22T09:37:24.693Z,18.53
2016-03-22T09:38:24.695Z,18.44
2016-03-22T09:39:24.698Z,18.4
2016-03-22T09:40:24.733Z,18.25
2016-03-22T09:41:24.751Z,18.2
2016-03-22T09:42:24.769Z,18.19
2016-03-22T09:43:24.788Z,18.19
2016-03-22T09:44:24.836Z,18.1
2016-03-22T09:45:24.856Z,17.9
2016-03-22T09:46:24.874Z,17.74
2016-03-22T09:47:24.892Z,17.65
2016-03-22T09:48:24.910Z,17.48
2016-03-22T09:49:24.929Z,17.36
2016-03-22T09:50:24.947Z,17.22
2016-03-22T09:51:24.965Z,17.26
2016-03-22T09:52:24.999Z,17.2
2016-03-22T09:53:25.018Z,17.08
2016-03-22T09:54:25.020Z,17.06
2016-03-22T09:55:25.071Z,16.89
2016-03-22T09:56:25.088Z,16.75
2016-03-22T09:57:25.107Z,16.61
2016-03-22T09:58:25.124Z,16.61
2016-03-22T09:59:25.174Z,16.53
2016-03-22T10:00:25.177Z,16.23
2016-03-22T10:01:25.195Z,16.17
2016-03-22T10:02:25.198Z,16.13
2016-03-22T10:03:25.232Z,16.05
2016-03-22T10:04:25.250Z,15.98
2016-03-22T10:05:25.269Z,15.94
2016-03-22T10:06:25.287Z,15.68
2016-03-22T10:07:25.305Z,15.67
2016-03-22T10:08:25.387Z,15.57
2016-03-22T10:09:25.358Z,15.58
2016-03-22T10:10:25.376Z,15.4
2016-03-22T10:11:25.394Z,15.37
2016-03-22T10:12:25.428Z,15.27
2016-03-22T10:13:25.431Z,15.25
2016-03-22T10:14:25.465Z,15.11
2016-03-22T10:15:25.514Z,15.04
2016-03-22T10:16:25.502Z,14.89
2016-03-22T10:17:25.504Z,14.85
2016-03-22T10:18:25.522Z,14.97
2016-03-22T10:19:25.556Z,14.84
2016-03-22T10:20:25.558Z,14.84
2016-03-22T10:21:25.608Z,14.77
2016-03-22T10:22:25.627Z,14.62
2016-03-22T10:23:25.645Z,14.7
2016-03-22T10:24:25.648Z,14.7
2016-03-22T10:25:25.666Z,14.77
2016-03-22T10:26:25.685Z,14.7
2016-03-22T10:27:25.546Z,14.66
2016-03-22T10:28:25.721Z,14.32
2016-03-22T10:29:25.740Z,14.44
2016-03-22T10:30:25.773Z,14.63
2016-03-22T10:31:25.792Z,14.73
2016-03-22T10:32:25.810Z,14.96
2016-03-22T10:33:25.812Z,15.09
2016-03-22T10:34:25.846Z,15.19
2016-03-22T10:35:25.849Z,15.33
2016-03-22T10:36:25.884Z,15.31
2016-03-22T10:37:25.886Z,15.46
2016-03-22T10:38:25.936Z,15.46
2016-03-22T10:39:25.939Z,15.57
2016-03-22T10:40:25.941Z,15.73
2016-03-22T10:41:25.974Z,16
2016-03-22T10:42:25.977Z,16.29
2016-03-22T10:43:26.011Z,16.53
2016-03-22T10:44:26.014Z,16.65
2016-03-22T10:45:26.080Z,16.75
2016-03-22T10:46:26.082Z,16.65
2016-03-22T10:47:26.085Z,16.54
2016-03-22T10:48:26.119Z,16.57
2016-03-22T10:49:26.137Z,16.57
2016-03-22T10:50:26.155Z,16.56
2016-03-22T10:51:26.173Z,16.58
2016-03-22T10:52:26.223Z,16.64
2016-03-22T10:53:26.226Z,16.57
2016-03-22T10:54:26.229Z,16.53
2016-03-22T10:55:26.263Z,16.53
2016-03-22T10:56:26.280Z,16.46
2016-03-22T10:57:26.315Z,16.33
2016-03-22T10:58:26.301Z,16.39
2016-03-22T10:59:26.368Z,16.21
2016-03-22T11:00:26.370Z,16.09
2016-03-22T11:01:26.372Z,15.91
2016-03-22T11:02:26.407Z,15.84
2016-03-22T11:03:26.422Z,15.7
2016-03-22T11:04:26.419Z,15.77
2016-03-22T11:05:26.462Z,15.7
2016-03-22T11:06:26.443Z,15.7
2016-03-22T11:07:26.472Z,15.82
2016-03-22T11:08:26.500Z,15.73
2016-03-22T11:09:26.500Z,15.64
2016-03-22T11:10:26.517Z,15.49
2016-03-22T11:11:26.532Z,15.33
2016-03-22T11:12:26.580Z,15.35
2016-03-22T11:13:26.565Z,15.22
2016-03-22T11:14:26.583Z,15.11
2016-03-22T11:15:26.601Z,15.15
2016-03-22T11:16:26.649Z,15.09
2016-03-22T11:17:26.635Z,15.18
2016-03-22T11:18:26.669Z,15.29
2016-03-22T11:19:26.686Z,15
2016-03-22T11:20:26.704Z,14.89
2016-03-22T11:21:26.738Z,14.86
2016-03-22T11:22:26.740Z,14.88
2016-03-22T11:23:26.774Z,14.81
2016-03-22T11:24:26.777Z,14.81
2016-03-22T11:25:26.795Z,14.84
2016-03-22T11:26:26.813Z,14.78
2016-03-22T11:27:26.832Z,14.6
2016-03-22T11:28:26.865Z,14.51
2016-03-22T11:29:26.868Z,14.54
2016-03-22T11:30:26.886Z,14.53
2016-03-22T11:31:26.921Z,14.6
2016-03-22T11:32:26.939Z,14.55
2016-03-22T11:33:26.957Z,14.4
2016-03-22T11:34:26.975Z,14.33
2016-03-22T11:35:26.978Z,14.4
2016-03-22T11:36:27.012Z,14.35
2016-03-22T11:37:27.031Z,14.35
2016-03-22T11:38:27.049Z,14.32
2016-03-22T11:39:27.066Z,14.29
2016-03-22T11:40:27.086Z,14.28
2016-03-22T11:41:27.103Z,14.28
2016-03-22T11:42:27.122Z,14.2
2016-03-22T11:43:27.141Z,14.08
2016-03-22T11:44:27.143Z,14.1
2016-03-22T11:45:27.177Z,14.03
2016-03-22T11:46:27.211Z,14.03
2016-03-22T11:47:27.198Z,13.97
2016-03-22T11:48:27.232Z,14
2016-03-22T11:49:27.249Z,13.99
2016-03-22T11:50:27.253Z,14
2016-03-22T11:51:27.287Z,13.97
2016-03-22T11:52:27.290Z,13.93
2016-03-22T11:53:27.307Z,13.67
2016-03-22T11:54:27.185Z,13.72
2016-03-22T11:55:27.360Z,13.7
2016-03-22T11:56:27.348Z,13.68
2016-03-22T11:57:27.412Z,13.59
2016-03-22T11:58:27.415Z,13.74
2016-03-22T11:59:27.434Z,13.63
2016-03-22T12:00:27.451Z,13.68
2016-03-22T12:01:27.470Z,13.65
2016-03-22T12:02:27.489Z,13.62
2016-03-22T12:03:27.506Z,13.57
2016-03-22T12:04:27.509Z,13.59
2016-03-22T12:05:27.528Z,13.54
2016-03-22T12:06:27.545Z,13.46
2016-03-22T12:07:27.580Z,13.52
2016-03-22T12:08:27.597Z,13.57
2016-03-22T12:09:27.586Z,13.68
2016-03-22T12:10:27.619Z,13.65
2016-03-22T12:11:27.622Z,13.62
2016-03-22T12:12:27.656Z,13.6
2016-03-22T12:13:27.674Z,13.54
2016-03-22T12:14:27.692Z,13.54
2016-03-22T12:15:27.742Z,13.49
2016-03-22T12:16:27.744Z,13.6
2016-03-22T12:17:27.747Z,13.52
2016-03-22T12:18:27.781Z,13.56
2016-03-22T12:19:27.800Z,13.44
2016-03-22T12:20:27.787Z,13.27
2016-03-22T12:21:27.821Z,13.3
2016-03-22T12:22:27.824Z,13.28
2016-03-22T12:23:27.888Z,13.18
2016-03-22T12:24:27.860Z,13.19
2016-03-22T12:25:27.879Z,12.98
2016-03-22T12:26:27.787Z,12.98
2016-03-22T12:27:27.898Z,13.03
2016-03-22T12:28:27.948Z,13.09
2016-03-22T12:29:27.951Z,13.11
2016-03-22T12:30:27.970Z,13.08
2016-03-22T12:31:27.988Z,13.05
2016-03-22T12:32:27.990Z,13.05
2016-03-22T12:33:28.040Z,13.09
2016-03-22T12:34:28.042Z,13.09
2016-03-22T12:35:28.046Z,13.05
2016-03-22T12:36:28.064Z,13.11
2016-03-22T12:37:28.097Z,13.08
2016-03-22T12:38:28.117Z,13.04
2016-03-22T12:39:28.134Z,12.98
2016-03-22T12:40:28.137Z,12.91
2016-03-22T12:41:28.172Z,12.9
2016-03-22T12:42:28.174Z,12.9
2016-03-22T12:43:28.192Z,12.87
2016-03-22T12:44:28.288Z,12.94
2016-03-22T12:45:28.230Z,12.95
2016-03-22T12:46:28.232Z,12.98
2016-03-22T12:47:28.266Z,13.05
2016-03-22T12:48:28.269Z,13.08
2016-03-22T12:49:28.286Z,13.04
2016-03-22T12:50:28.305Z,12.98
2016-03-22T12:51:28.339Z,13.03
2016-03-22T12:52:28.374Z,12.98
2016-03-22T12:53:28.376Z,12.95
2016-03-22T12:54:28.378Z,12.98
2016-03-22T12:55:28.397Z,12.98
2016-03-22T12:56:28.540Z,13.11
2016-03-22T12:57:28.433Z,13.05
2016-03-22T12:58:28.435Z,13.04
2016-03-22T12:59:28.454Z,13.03
2016-03-22T13:00:28.519Z,13.09
2016-03-22T13:01:28.490Z,13.08
2016-03-22T13:02:28.509Z,13.05
2016-03-22T13:03:28.528Z,13.11
2016-03-22T13:04:28.545Z,13.23
2016-03-22T13:05:28.579Z,13.28
2016-03-22T13:06:28.582Z,13.49
2016-03-22T13:07:28.605Z,13.49
2016-03-22T13:08:28.609Z,13.6
2016-03-22T13:09:28.642Z,13.6
2016-03-22T13:10:28.645Z,13.59